createdAt,value
2023-04-01T00:01:37.286Z,10.50
2023-04-01T00:04:07.682Z,8.60
2023-04-01T00:06:38.710Z,7.37
2023-04-01T00:09:08.014Z,8.17
2023-04-01T00:11:38.857Z,7.93
2023-04-01T00:14:08.180Z,7.23
2023-04-01T00:16:38.147Z,8.80
2023-04-01T00:19:08.147Z,8.00
2023-04-01T00:21:39.227Z,8.40
2023-04-01T00:24:09.712Z,7.40
2023-04-01T00:26:39.724Z,8.90
2023-04-01T00:29:09.286Z,7.90
2023-04-01T00:31:38.827Z,8.57
2023-04-01T00:34:08.139Z,8.40
2023-04-01T00:36:40.440Z,8.43
2023-04-01T00:39:10.380Z,8.33
2023-04-01T00:41:39.462Z,10.23
2023-04-01T00:44:19.978Z,11.33
2023-04-01T00:46:50.019Z,10.20
2023-04-01T00:49:21.550Z,8.50
2023-04-01T00:51:54.844Z,8.77
2023-04-01T00:54:25.994Z,8.80
2023-04-01T00:56:57.668Z,9.10
2023-04-01T00:59:30.675Z,9.47
2023-04-01T01:02:00.301Z,9.00
2023-04-01T01:04:30.877Z,8.07
2023-04-01T01:07:12.246Z,8.80
2023-04-01T01:09:45.650Z,9.40
2023-04-01T01:12:18.239Z,8.77
2023-04-01T01:14:53.409Z,9.20
2023-04-01T01:17:29.873Z,8.90
2023-04-01T01:20:26.102Z,9.50
2023-04-01T01:23:10.725Z,8.30
2023-04-01T01:25:44.214Z,8.23
2023-04-01T01:28:29.386Z,8.43
2023-04-01T01:31:04.261Z,8.20
2023-04-01T01:33:55.500Z,8.67
2023-04-01T01:36:30.450Z,8.27
2023-04-01T01:39:01.519Z,7.93
2023-04-01T01:41:32.713Z,7.70
2023-04-01T01:44:04.202Z,7.87
2023-04-01T01:46:34.510Z,9.33
2023-04-01T01:49:05.873Z,8.30
2023-04-01T01:51:37.643Z,8.57
2023-04-01T01:54:09.416Z,9.07
2023-04-01T01:56:39.310Z,8.10
2023-04-01T01:59:12.022Z,8.70
2023-04-01T02:01:45.450Z,8.90
2023-04-01T02:04:17.091Z,8.80
2023-04-01T02:06:51.750Z,9.20
2023-04-01T02:09:21.534Z,8.57
2023-04-01T02:11:52.219Z,9.00
2023-04-01T02:14:24.157Z,8.47
2023-04-01T02:16:55.244Z,9.63
2023-04-01T02:19:28.208Z,8.67
2023-04-01T02:22:00.666Z,8.00
2023-04-01T02:24:32.007Z,9.23
2023-04-01T02:27:02.041Z,9.00
2023-04-01T02:29:34.295Z,8.50
2023-04-01T02:32:04.130Z,9.33
2023-04-01T02:34:33.339Z,8.33
2023-04-01T02:37:05.417Z,8.70
2023-04-01T02:39:34.839Z,7.87
2023-04-01T02:42:04.482Z,8.40
2023-04-01T02:44:36.024Z,8.93
2023-04-01T02:47:06.320Z,9.67
2023-04-01T02:49:35.898Z,8.60
2023-04-01T02:52:06.865Z,8.83
2023-04-01T02:54:35.956Z,8.57
2023-04-01T02:57:06.328Z,8.90
2023-04-01T02:59:35.788Z,9.00
2023-04-01T03:02:05.905Z,8.40
2023-04-01T03:04:35.208Z,9.83
2023-04-01T03:07:06.246Z,8.57
2023-04-01T03:09:37.081Z,8.63
2023-04-01T03:12:07.482Z,8.70
2023-04-01T03:14:47.400Z,8.93
2023-04-01T03:17:17.654Z,9.83
2023-04-01T03:19:46.653Z,9.37
2023-04-01T03:22:20.921Z,9.70
2023-04-01T03:24:51.255Z,9.23
2023-04-01T03:27:20.434Z,9.30
2023-04-01T03:29:52.798Z,10.07
2023-04-01T03:32:22.236Z,9.13
2023-04-01T03:34:51.978Z,9.83
2023-04-01T03:37:24.290Z,10.47
2023-04-01T03:39:54.338Z,9.70
2023-04-01T03:42:23.303Z,9.60
2023-04-01T03:44:54.460Z,10.60
2023-04-01T03:47:24.070Z,11.17
2023-04-01T03:49:54.313Z,10.13
2023-04-01T03:52:25.262Z,9.60
2023-04-01T03:54:55.383Z,10.27
2023-04-01T03:57:24.498Z,8.93
2023-04-01T03:59:56.414Z,9.83
2023-04-01T04:02:26.466Z,9.07
2023-04-01T04:04:55.920Z,11.13
2023-04-01T04:07:27.571Z,8.87
2023-04-01T04:10:07.764Z,9.43
2023-04-01T04:12:38.817Z,9.83
2023-04-01T04:15:08.572Z,9.73
2023-04-01T04:17:38.473Z,10.00
2023-04-01T04:20:09.697Z,11.70
2023-04-01T04:22:40.466Z,9.90
2023-04-01T04:25:12.949Z,9.67
2023-04-01T04:27:42.544Z,9.80
2023-04-01T04:30:16.086Z,9.83
2023-04-01T04:32:45.981Z,8.57
2023-04-01T04:35:15.781Z,11.00
2023-04-01T04:37:48.203Z,8.90
2023-04-01T04:40:19.128Z,10.00
2023-04-01T04:42:49.292Z,10.10
2023-04-01T04:45:19.111Z,10.80
2023-04-01T04:47:57.477Z,8.63
2023-04-01T04:50:27.544Z,10.80
2023-04-01T04:52:58.165Z,10.40
2023-04-01T04:55:27.689Z,9.60
2023-04-01T04:58:16.737Z,9.33
2023-04-01T05:00:47.783Z,10.80
2023-04-01T05:03:24.718Z,9.60
2023-04-01T05:05:54.792Z,10.67
2023-04-01T05:08:25.515Z,11.80
2023-04-01T05:10:55.221Z,9.37
2023-04-01T05:13:24.275Z,10.13
2023-04-01T05:15:55.870Z,10.57
2023-04-01T05:18:25.321Z,11.07
2023-04-01T05:20:57.737Z,10.47
2023-04-01T05:23:28.569Z,10.60
2023-04-01T05:25:58.306Z,10.77
2023-04-01T05:28:29.024Z,10.67
2023-04-01T05:31:01.179Z,10.47
2023-04-01T05:33:38.835Z,11.40
2023-04-01T05:36:13.187Z,12.30
2023-04-01T05:38:47.631Z,12.47
2023-04-01T05:41:19.394Z,11.53
2023-04-01T05:43:49.446Z,11.73
2023-04-01T05:46:37.293Z,11.10
2023-04-01T05:49:16.057Z,10.70
2023-04-01T05:51:45.459Z,10.07
2023-04-01T05:54:17.381Z,10.10
2023-04-01T05:56:48.941Z,9.40
2023-04-01T05:59:19.496Z,8.53
2023-04-01T06:01:48.912Z,7.10
2023-04-01T06:17:27.381Z,6.23
2023-04-01T06:20:03.652Z,5.90
2023-04-01T06:22:51.858Z,5.00
2023-04-01T06:25:39.226Z,10.40
2023-04-01T06:28:36.439Z,6.33
2023-04-01T06:31:13.389Z,5.73
2023-04-01T06:33:57.505Z,5.93
2023-04-01T06:36:43.672Z,5.80
2023-04-01T06:39:23.059Z,6.20
2023-04-01T06:42:20.349Z,5.50
2023-04-01T06:44:57.084Z,5.90
2023-04-01T06:47:53.319Z,7.13
2023-04-01T06:50:56.623Z,5.07
2023-04-01T06:53:58.984Z,5.10
2023-04-01T06:56:49.459Z,5.90
2023-04-01T06:59:30.918Z,6.77
2023-04-01T07:02:02.961Z,5.90
2023-04-01T07:04:34.908Z,6.63
2023-04-01T07:07:07.647Z,5.70
2023-04-01T07:09:43.252Z,8.80
2023-04-01T07:12:50.332Z,5.63
2023-04-01T07:15:58.812Z,5.97
2023-04-01T07:18:35.015Z,6.90
2023-04-01T07:21:13.540Z,5.53
2023-04-01T07:23:46.870Z,5.90
2023-04-01T07:26:36.342Z,5.37
2023-04-01T07:29:14.299Z,6.63
2023-04-01T07:32:08.780Z,5.87
2023-04-01T07:34:44.910Z,6.13
2023-04-01T07:37:19.439Z,6.60
2023-04-01T07:39:54.605Z,8.50
2023-04-01T07:42:44.144Z,5.80
2023-04-01T07:45:18.887Z,5.60
2023-04-01T07:47:53.269Z,4.80
2023-04-01T07:50:26.814Z,6.80
2023-04-01T07:53:02.890Z,5.97
2023-04-01T07:55:34.165Z,6.30
2023-04-01T07:58:07.945Z,6.60
2023-04-01T08:00:45.836Z,6.23
2023-04-01T08:03:30.613Z,5.50
2023-04-01T08:06:03.358Z,6.60
2023-04-01T08:08:42.416Z,6.03
2023-04-01T08:11:40.271Z,5.40
2023-04-01T08:14:33.306Z,6.10
2023-04-01T08:17:25.188Z,6.57
2023-04-01T08:20:03.071Z,8.77
2023-04-01T08:22:39.483Z,5.50
2023-04-01T08:25:21.215Z,6.23
2023-04-01T08:27:52.867Z,6.03
2023-04-01T08:30:23.096Z,5.87
2023-04-01T08:32:55.246Z,6.10
2023-04-01T08:35:32.952Z,6.07
2023-04-01T08:38:09.210Z,5.70
2023-04-01T08:40:55.549Z,5.57
2023-04-01T08:43:33.567Z,5.63
2023-04-01T08:46:10.221Z,5.83
2023-04-01T08:48:48.766Z,4.87
2023-04-01T08:51:39.421Z,5.07
2023-04-01T08:54:30.741Z,5.50
2023-04-01T08:57:07.412Z,5.13
2023-04-01T08:59:59.492Z,6.47
2023-04-01T09:03:28.756Z,5.27
2023-04-01T09:06:20.002Z,5.53
2023-04-01T09:09:00.657Z,5.70
2023-04-01T09:11:35.946Z,7.00
2023-04-01T09:14:30.209Z,5.30
2023-04-01T09:17:36.043Z,7.70
2023-04-01T09:20:10.323Z,6.00
2023-04-01T09:22:46.325Z,5.23
2023-04-01T09:25:25.672Z,4.63
2023-04-01T09:28:00.120Z,5.20
2023-04-01T09:30:43.263Z,6.50
2023-04-01T09:33:34.216Z,5.33
2023-04-01T09:36:07.454Z,4.97
2023-04-01T09:38:42.574Z,4.73
2023-04-01T09:41:23.078Z,5.70
2023-04-01T09:44:06.542Z,6.10
2023-04-01T09:46:53.671Z,4.63
2023-04-01T09:49:41.210Z,5.40
2023-04-01T09:52:15.933Z,4.30
2023-04-01T09:54:59.300Z,4.77
2023-04-01T09:57:54.724Z,5.27
2023-04-01T10:00:49.536Z,4.73
2023-04-01T10:03:37.289Z,4.83
2023-04-01T10:06:25.729Z,5.17
2023-04-01T10:09:09.703Z,5.37
2023-04-01T10:11:55.624Z,5.23
2023-04-01T10:14:33.863Z,4.40
2023-04-01T10:17:15.920Z,4.80
2023-04-01T10:20:04.890Z,4.70
2023-04-01T10:22:54.957Z,4.90
2023-04-01T10:25:43.061Z,5.00
2023-04-01T10:28:34.371Z,5.50
2023-04-01T10:31:29.288Z,5.37
2023-04-01T10:34:14.451Z,4.93
2023-04-01T10:36:54.495Z,3.90
2023-04-01T10:39:52.764Z,4.90
2023-04-01T10:42:57.460Z,5.30
2023-04-01T10:45:59.710Z,4.93
2023-04-01T10:48:49.113Z,4.13
2023-04-01T10:51:28.979Z,4.90
2023-04-01T10:54:17.334Z,5.43
2023-04-01T10:57:19.557Z,4.60
2023-04-01T11:00:26.074Z,5.20
2023-04-01T11:03:50.466Z,3.87
2023-04-01T11:07:02.107Z,5.47
2023-04-01T11:09:50.624Z,5.30
2023-04-01T11:12:47.177Z,4.97
2023-04-01T11:15:46.580Z,5.43
2023-04-01T11:18:40.911Z,5.70
2023-04-01T11:21:29.695Z,5.03
2023-04-01T11:24:09.454Z,5.43
2023-04-01T11:26:55.661Z,4.60
2023-04-01T11:29:59.219Z,5.07
2023-04-01T11:32:44.576Z,4.80
2023-04-01T11:35:48.331Z,4.93
2023-04-01T11:38:24.955Z,4.80
2023-04-01T11:40:57.570Z,6.30
2023-04-01T11:43:51.456Z,4.90
2023-04-01T11:46:28.945Z,5.20
2023-04-01T11:52:01.087Z,5.43
2023-04-01T11:54:36.106Z,6.03
2023-04-01T11:57:10.726Z,5.87
2023-04-01T11:59:55.367Z,4.60
2023-04-01T12:02:29.178Z,5.17
2023-04-01T12:05:03.568Z,5.30
2023-04-01T12:07:46.668Z,6.60
2023-04-01T12:10:20.528Z,6.80
2023-04-01T12:13:01.741Z,5.50
2023-04-01T12:15:34.865Z,5.43
2023-04-01T12:18:09.309Z,6.50
2023-04-01T12:20:45.929Z,6.07
2023-04-01T12:23:36.482Z,6.57
2023-04-01T12:26:20.829Z,5.77
2023-04-01T12:29:00.570Z,5.63
2023-04-01T12:31:34.172Z,5.87
2023-04-01T12:34:24.400Z,6.23
2023-04-01T12:37:00.873Z,6.07
2023-04-01T12:39:41.284Z,6.47
2023-04-01T12:42:19.078Z,5.63
2023-04-01T12:44:56.712Z,4.70
2023-04-01T12:47:31.593Z,5.00
2023-04-01T12:50:29.633Z,5.60
2023-04-01T12:53:08.704Z,5.43
2023-04-01T12:55:41.080Z,6.13
2023-04-01T12:58:31.509Z,6.27
2023-04-01T13:01:18.940Z,5.97
2023-04-01T13:04:02.607Z,4.63
2023-04-01T13:06:37.673Z,4.67
2023-04-01T13:09:18.236Z,5.30
2023-04-01T13:11:54.446Z,6.53
2023-04-01T13:14:33.316Z,5.97
2023-04-01T13:17:08.131Z,4.87
2023-04-01T13:19:39.842Z,4.63
2023-04-01T13:22:13.032Z,4.97
2023-04-01T13:24:49.180Z,4.87
2023-04-01T13:27:22.174Z,5.10
2023-04-01T13:29:59.420Z,3.93
2023-04-01T13:35:21.330Z,4.70
2023-04-01T13:38:18.368Z,4.73
2023-04-01T13:41:02.203Z,4.87
2023-04-01T13:43:35.274Z,4.30
2023-04-01T13:46:29.255Z,4.73
2023-04-01T13:49:17.454Z,3.87
2023-04-01T13:51:54.132Z,4.60
2023-04-01T13:54:46.877Z,4.73
2023-04-01T13:57:23.662Z,4.87
2023-04-01T14:00:17.628Z,4.73
2023-04-01T14:03:02.024Z,3.27
2023-04-01T14:05:43.771Z,3.20
2023-04-01T14:08:20.627Z,2.60
2023-04-01T14:10:55.902Z,2.47
2023-04-01T14:13:32.894Z,2.33
2023-04-01T14:16:14.167Z,2.27
2023-04-01T14:18:49.026Z,2.40
2023-04-01T14:21:27.499Z,2.70
2023-04-01T14:24:09.857Z,2.67
2023-04-01T14:26:48.872Z,2.70
2023-04-01T14:29:24.689Z,2.50
2023-04-01T14:32:01.347Z,1.87
2023-04-01T14:34:37.308Z,2.30
2023-04-01T14:37:25.662Z,1.97
2023-04-01T14:40:06.831Z,2.13
2023-04-01T14:42:58.790Z,3.50
2023-04-01T14:45:45.903Z,4.00
2023-04-01T14:48:21.788Z,4.10
2023-04-01T14:50:52.778Z,4.17
2023-04-01T14:53:30.541Z,3.57
2023-04-01T14:56:02.025Z,3.67
2023-04-01T14:58:43.621Z,3.93
2023-04-01T15:01:21.262Z,5.50
2023-04-01T15:03:56.611Z,4.70
2023-04-01T15:06:42.752Z,4.07
2023-04-01T15:09:17.680Z,4.30
2023-04-01T15:11:54.939Z,5.53
2023-04-01T15:14:31.265Z,4.93
2023-04-01T15:17:08.365Z,4.23
2023-04-01T15:19:46.850Z,4.93
2023-04-01T15:22:28.787Z,5.10
2023-04-01T15:25:05.164Z,4.53
2023-04-01T15:27:43.962Z,4.40
2023-04-01T15:30:32.329Z,5.43
2023-04-01T15:33:16.608Z,3.97
2023-04-01T15:35:50.737Z,4.60
2023-04-01T15:38:27.821Z,4.83
2023-04-01T15:41:01.473Z,4.40
2023-04-01T15:43:40.020Z,4.53
2023-04-01T15:46:31.108Z,5.10
2023-04-01T15:49:07.667Z,4.43
2023-04-01T15:51:52.471Z,4.60
2023-04-01T15:54:35.808Z,3.93
2023-04-01T15:57:16.735Z,3.80
2023-04-01T16:00:00.750Z,3.30
2023-04-01T16:02:35.492Z,6.10
2023-04-01T16:05:08.591Z,2.83
2023-04-01T16:07:46.881Z,3.07
2023-04-01T16:10:35.426Z,2.70
2023-04-01T16:13:15.020Z,2.30
2023-04-01T16:15:49.686Z,3.40
2023-04-01T16:18:31.667Z,2.30
2023-04-01T16:21:03.645Z,3.67
2023-04-01T16:23:38.716Z,2.77
2023-04-01T16:26:11.242Z,2.97
2023-04-01T16:28:44.305Z,5.90
2023-04-01T16:31:17.334Z,2.33
2023-04-01T16:33:50.677Z,2.10
2023-04-01T16:36:25.630Z,1.97
2023-04-01T16:38:59.546Z,2.13
2023-04-01T16:41:33.257Z,1.90
2023-04-01T16:44:13.862Z,2.67
2023-04-01T16:46:46.407Z,2.80
2023-04-01T16:49:26.334Z,1.90
2023-04-01T16:51:57.221Z,2.80
2023-04-01T16:54:32.141Z,2.07
2023-04-01T16:57:06.170Z,2.43
2023-04-01T16:59:39.284Z,2.10
2023-04-01T17:02:14.270Z,1.80
2023-04-01T17:04:46.763Z,2.20
2023-04-01T17:07:25.108Z,1.97
2023-04-01T17:10:05.388Z,2.40
2023-04-01T17:12:38.963Z,1.80
2023-04-01T17:15:14.103Z,1.57
2023-04-01T17:17:50.446Z,3.20
2023-04-01T17:20:30.577Z,1.93
2023-04-01T17:23:04.186Z,1.50
2023-04-01T17:25:50.114Z,1.87
2023-04-01T17:28:27.109Z,2.03
2023-04-01T17:31:01.754Z,2.33
2023-04-01T17:33:46.337Z,2.27
2023-04-01T17:36:24.383Z,2.10
2023-04-01T17:39:00.770Z,2.10
2023-04-01T17:41:40.550Z,2.00
2023-04-01T17:44:20.139Z,3.40
2023-04-01T17:47:02.645Z,1.93
2023-04-01T17:49:35.831Z,2.07
2023-04-01T17:52:08.560Z,2.13
2023-04-01T17:54:45.448Z,1.57
2023-04-01T17:57:30.333Z,1.63
2023-04-01T18:00:05.504Z,1.67
2023-04-01T18:02:46.329Z,3.83
2023-04-01T18:05:30.559Z,2.00
2023-04-01T18:08:12.652Z,2.53
2023-04-01T18:10:45.115Z,2.10
2023-04-01T18:13:27.201Z,2.50
2023-04-01T18:16:01.790Z,2.80
2023-04-01T18:18:41.148Z,2.20
2023-04-01T18:21:16.506Z,2.23
2023-04-01T18:23:59.232Z,2.90
2023-04-01T18:26:33.829Z,1.70
2023-04-01T18:29:07.597Z,2.40
2023-04-01T18:31:40.459Z,2.07
2023-04-01T18:34:11.896Z,2.30
2023-04-01T18:36:45.681Z,4.90
2023-04-01T18:39:18.449Z,4.47
2023-04-01T18:41:55.624Z,5.53
2023-04-01T18:44:40.700Z,6.70
2023-04-01T18:47:18.294Z,4.53
2023-04-01T18:49:51.213Z,5.70
2023-04-01T18:52:24.771Z,4.80
2023-04-01T18:54:59.113Z,6.50
2023-04-01T18:57:31.067Z,5.50
2023-04-01T19:00:05.897Z,5.20
2023-04-01T19:02:38.380Z,7.03
2023-04-01T19:05:10.313Z,5.87
2023-04-01T19:07:47.867Z,5.50
2023-04-01T19:10:26.131Z,5.50
2023-04-01T19:13:08.140Z,6.40
2023-04-01T19:15:43.812Z,5.60
2023-04-01T19:18:26.246Z,5.53
2023-04-01T19:20:59.307Z,5.97
2023-04-01T19:23:43.631Z,6.73
2023-04-01T19:26:21.315Z,4.93
2023-04-01T19:28:53.949Z,4.43
2023-04-01T19:31:32.789Z,4.27
2023-04-01T19:34:09.393Z,4.50
2023-04-01T19:36:42.367Z,5.83
2023-04-01T19:39:19.377Z,6.33
2023-04-01T19:41:54.115Z,5.87
2023-04-01T19:44:31.615Z,5.43
2023-04-01T19:47:05.674Z,5.33
2023-04-01T19:49:46.753Z,5.47
2023-04-01T19:52:19.758Z,8.47
2023-04-01T19:54:53.961Z,5.10
2023-04-01T19:57:31.468Z,5.20
2023-04-01T20:00:05.663Z,5.10
2023-04-01T20:02:57.103Z,4.97
2023-04-01T20:05:41.379Z,4.90
2023-04-01T20:08:16.421Z,5.07
2023-04-01T20:10:48.016Z,5.73
2023-04-01T20:13:23.897Z,5.43
2023-04-01T20:16:01.144Z,4.77
2023-04-01T20:18:37.519Z,5.23
2023-04-01T20:21:09.690Z,5.63
2023-04-01T20:23:45.743Z,4.70
2023-04-01T20:26:16.377Z,5.07
2023-04-01T20:28:51.015Z,4.80
2023-04-01T20:31:27.582Z,4.37
2023-04-01T20:34:14.167Z,4.17
2023-04-01T20:36:49.982Z,4.30
2023-04-01T20:39:38.019Z,6.40
2023-04-01T20:42:17.639Z,5.07
2023-04-01T20:44:54.051Z,3.73
2023-04-01T20:47:27.599Z,4.20
2023-04-01T20:50:02.045Z,4.50
2023-04-01T20:52:35.643Z,4.30
2023-04-01T20:55:21.191Z,4.60
2023-04-01T20:57:54.581Z,4.60
2023-04-01T21:00:41.810Z,5.40
2023-04-01T21:03:19.108Z,4.70
2023-04-01T21:06:15.726Z,3.80
2023-04-01T21:09:01.739Z,4.33
2023-04-01T21:11:35.360Z,3.83
2023-04-01T21:14:16.387Z,5.07
2023-04-01T21:16:51.563Z,5.00
2023-04-01T21:19:32.702Z,4.47
2023-04-01T21:22:07.635Z,3.43
2023-04-01T21:24:48.539Z,3.10
2023-04-01T21:27:24.122Z,3.83
2023-04-01T21:30:02.214Z,5.10
2023-04-01T21:32:49.438Z,3.53
2023-04-01T21:35:26.694Z,4.47
2023-04-01T21:38:15.541Z,4.13
2023-04-01T21:40:56.726Z,4.17
2023-04-01T21:43:39.128Z,3.27
2023-04-01T21:46:29.463Z,2.90
2023-04-01T21:49:25.890Z,3.30
2023-04-01T21:52:10.031Z,6.37
2023-04-01T21:54:58.221Z,6.43
2023-04-01T21:57:40.478Z,4.20
2023-04-01T22:00:18.325Z,3.00
2023-04-01T22:03:25.925Z,3.33
2023-04-01T22:06:01.623Z,3.27
2023-04-01T22:08:38.478Z,3.57
2023-04-01T22:11:11.440Z,3.80
2023-04-01T22:13:44.303Z,4.17
2023-04-01T22:16:19.700Z,4.23
2023-04-01T22:18:50.447Z,5.97
2023-04-01T22:21:25.296Z,8.57
2023-04-01T22:24:00.304Z,6.33
2023-04-01T22:26:33.249Z,4.00
2023-04-01T22:29:06.905Z,4.40
2023-04-01T22:31:40.515Z,2.80
2023-04-01T22:34:14.043Z,3.07
2023-04-01T22:36:45.899Z,3.40
2023-04-01T22:39:25.960Z,3.00
2023-04-01T22:42:03.201Z,3.40
2023-04-01T22:44:40.967Z,5.10
2023-04-01T22:47:17.350Z,3.17
2023-04-01T22:49:51.070Z,3.03
2023-04-01T22:52:27.152Z,3.30
2023-04-01T22:55:01.324Z,4.27
2023-04-01T22:57:40.840Z,2.67
2023-04-01T23:00:13.549Z,3.30
2023-04-01T23:02:45.402Z,3.23
2023-04-01T23:05:16.500Z,3.87
2023-04-01T23:07:50.249Z,3.37
2023-04-01T23:10:26.534Z,3.33
2023-04-01T23:12:58.431Z,3.30
2023-04-01T23:15:29.384Z,3.90
2023-04-01T23:18:08.858Z,3.87
2023-04-01T23:20:59.846Z,3.23
2023-04-01T23:23:33.331Z,3.80
2023-04-01T23:26:08.716Z,3.40
2023-04-01T23:28:43.487Z,3.73
2023-04-01T23:31:31.263Z,3.40
2023-04-01T23:34:02.006Z,4.13
2023-04-01T23:36:33.166Z,3.80
2023-04-01T23:39:05.890Z,2.93
2023-04-01T23:41:38.203Z,4.20
2023-04-01T23:44:09.182Z,3.97
2023-04-01T23:46:40.129Z,4.10
2023-04-01T23:49:13.216Z,7.47
2023-04-01T23:51:52.642Z,4.40
2023-04-01T23:54:27.379Z,4.90
2023-04-01T23:56:59.733Z,4.20
2023-04-01T23:59:32.255Z,42.67
